Αρχική σελίδα
METAR-TAF:

METAR-TAF

Αεροδρόμια :

Οττάβα, Οντάριο, Καναδάς

γεωγραφικό πλάτος: 45-19N, γεωγραφικό μήκος: 075-40W, υψόμετρο: 116 μ

Παρών καιρός

Η αναφορά έγινε 30 λεπτά πριν, στις 15:00 UTC
Άνεμος 4 kt από
Θερμοκρασία -5°C
Υγρασία 49%
Πίεση 1025 hPa
Ορατότητα: 24.1 χλμ
Καθαρός ουρανός

METAR: CYOW 181500Z 32004KT 15SM SKC M05/M14 A3026 RMK SLP257

Χρόνος: 11:30 (15:30 UTC)

Πρόγνωση Καιρού

Η αναφορά έγινε 52 λεπτά πριν, στις 14:38 UTC
Η πρόγνωση ισχύει από τις 18 στις 15 UTC έως τις 19 στις 12 UTC
Άνεμος 5 kt από
Ορατότητα: 10 χλμ
Καθαρός ουρανός
Καθιστάμενος
από 18 στις 15 UTC έως τις 18 στις 17 UTC
Άνεμος 10 kt από Δ με ριπές μέχρι 20 kt
Καθιστάμενος
από 18 στις 22 UTC έως τις 18 στις 24 UTC
Άνεμος 6 kt από Δ/BΔ

TAF: CYOW 181438Z 1815/1912 31005KT P6SM SKC BECMG 1815/1817 27010G20KT BECMG 1822/1824 30006KT RMK NXT FCST BY 181800Z

Μετεωρολογικές αναφορές και προγνώσεις για περισσότερα από 4000 αεροδρόμια (δελτία METAR και TAF).

Οι διαθέσιμοι σταθμοί απεικονίζονται στο χάρτη με κίτρινες και κόκκινες κουκκίδες.

Μετακινήστε το ποντίκι πάνω από τις κουκκίδες για να δείτε το όνομα του σταθμού.

Στη συνέχεια, κάντε κλικ για να δείτε τις μετεωρολογικές αναφορές και τις προγνώσεις καιρού.

Για να αλλάξετε το χάρτη: κάντε κλικ στα πράσινα κουμπιά με τον μαύρο σταυρό για να ζουμάρετε, στο πράσινο κουμπί με την παύλα για να αφαιρέσετε το ζουμ ή στα πράσινα βέλη για να αντιπαραβάλλετε χάρτες.


METAR-TAF: